Time;durP1;ratioP1;P1;durP2;ratioP2;P2;SDS_P1;SDS_P2;PMS_P1;PMS_P2;Temp;Humidity;BMP_temperature;BMP_pressure;BME280_temperature;BME280_humidity;BME280_pressure;Samples;Min_cycle;Max_cycle;Signal;HPM_P1;HPM_P2
2022/08/26 00:01:14;;;;;;;8.30;7.25;;;;;;;18.90;75.14;97980.50;4861667;29;20433;-72
2022/08/26 00:03:41;;;;;;;10.15;7.65;;;;;;;18.85;75.07;97978.47;4861986;29;20057;-71
2022/08/26 00:06:08;;;;;;;9.13;7.82;;;;;;;18.81;75.37;97979.97;4866461;29;20536;-72
2022/08/26 00:08:38;;;;;;;8.93;7.22;;;;;;;18.77;75.39;97976.91;4867679;29;20045;-74
2022/08/26 00:11:07;;;;;;;15.68;7.88;;;;;;;18.71;75.36;97982.25;4865485;29;20052;-71
2022/08/26 00:13:35;;;;;;;12.57;6.93;;;;;;;18.71;75.91;97976.91;4864782;29;20052;-72
2022/08/26 00:16:04;;;;;;;9.43;7.95;;;;;;;18.61;76.12;97972.84;4867450;29;20045;-72
2022/08/26 00:18:33;;;;;;;8.88;7.38;;;;;;;18.54;75.97;97973.94;4855437;29;20057;-72
2022/08/26 00:21:07;;;;;;;8.35;7.25;;;;;;;18.54;75.87;97973.94;4861804;29;21059;-71
2022/08/26 00:23:34;;;;;;;9.80;8.35;;;;;;;18.50;75.72;97975.41;4862269;29;20144;-72
2022/08/26 00:26:01;;;;;;;11.93;7.90;;;;;;;18.48;76.08;97972.94;4861185;29;20048;-72
2022/08/26 00:28:27;;;;;;;14.25;8.52;;;;;;;18.46;76.43;97982.22;4864107;29;20520;-72
2022/08/26 00:30:54;;;;;;;12.70;8.73;;;;;;;18.48;75.97;97982.81;4873810;29;20041;-72
2022/08/26 00:33:21;;;;;;;12.73;8.75;;;;;;;18.47;76.26;97976.66;4863238;29;20087;-73
2022/08/26 00:35:48;;;;;;;11.35;8.48;;;;;;;18.47;76.60;97981.19;4860156;29;20053;-71
2022/08/26 00:38:17;;;;;;;12.50;8.85;;;;;;;18.46;76.35;97982.22;4862563;29;20050;-71
2022/08/26 00:40:54;;;;;;;8.75;7.57;;;;;;;18.54;75.99;97976.63;4863994;29;20937;-72
2022/08/26 00:43:21;;;;;;;10.88;7.38;;;;;;;18.54;76.15;97979.31;4867585;29;20060;-71
2022/08/26 00:45:54;;;;;;;10.50;8.30;;;;;;;18.52;76.53;97979.50;4868346;29;20132;-71
2022/08/26 00:48:23;;;;;;;8.45;7.65;;;;;;;18.58;76.34;97978.63;4874642;29;20049;-71
2022/08/26 00:50:57;;;;;;;9.80;7.55;;;;;;;18.68;76.08;97970.13;4866424;29;20045;-71
2022/08/26 00:53:27;;;;;;;8.70;7.55;;;;;;;18.72;75.90;97968.66;4862454;29;20053;-71
2022/08/26 00:56:01;;;;;;;9.57;8.15;;;;;;;18.68;75.61;97980.84;4875949;29;20118;-71
2022/08/26 00:58:31;;;;;;;11.90;8.93;;;;;;;18.69;76.71;97973.63;4870449;29;20049;-71
2022/08/26 01:00:59;;;;;;;10.52;8.85;;;;;;;18.65;76.76;97978.59;4870965;29;20056;-71
2022/08/26 01:03:26;;;;;;;9.48;8.27;;;;;;;18.63;76.42;97983.34;4875285;29;20061;-71
2022/08/26 01:05:56;;;;;;;10.75;9.20;;;;;;;18.62;75.93;97987.06;4865397;29;20041;-71
2022/08/26 01:08:23;;;;;;;10.15;9.02;;;;;;;18.50;76.52;97984.25;4860617;29;20045;-72
2022/08/26 01:10:51;;;;;;;15.20;8.57;;;;;;;18.48;76.63;97993.53;4869516;29;20524;-71
2022/08/26 01:13:21;;;;;;;11.40;8.00;;;;;;;18.44;76.63;97985.13;4873847;29;20056;-71
2022/08/26 01:15:54;;;;;;;11.95;8.38;;;;;;;18.32;77.29;97995.69;4867991;29;20515;-71
2022/08/26 01:18:21;;;;;;;11.07;8.55;;;;;;;18.26;77.76;97996.56;4868259;29;20050;-71
2022/08/26 01:21:05;;;;;;;11.48;8.82;;;;;;;18.26;78.08;97996.56;4875739;29;20078;-71
2022/08/26 01:23:39;;;;;;;10.65;8.90;;;;;;;18.14;77.46;97995.56;4868740;29;20120;-71
2022/08/26 01:26:10;;;;;;;8.77;7.72;;;;;;;18.15;77.89;97995.38;4877123;29;20078;-72
2022/08/26 01:28:46;;;;;;;12.75;9.50;;;;;;;18.14;78.46;97991.06;4866206;29;20055;-72
2022/08/26 01:31:19;;;;;;;10.90;9.20;;;;;;;18.13;78.21;97986.72;4870927;29;20091;-71
2022/08/26 01:34:11;;;;;;;10.40;8.63;;;;;;;18.08;78.21;97989.22;4868493;29;20069;-71
2022/08/26 01:36:38;;;;;;;12.77;9.70;;;;;;;18.05;78.20;97992.34;4860652;29;20065;-71
2022/08/26 01:39:05;;;;;;;21.67;11.18;;;;;;;18.02;78.83;97990.09;4870723;29;20056;-71
2022/08/26 01:41:35;;;;;;;12.63;9.48;;;;;;;18.02;79.02;97990.09;4892530;29;20045;-71
2022/08/26 01:44:04;;;;;;;11.68;8.90;;;;;;;18.09;78.66;97988.22;4869441;29;20068;-71
2022/08/26 01:46:35;;;;;;;12.10;9.98;;;;;;;18.13;78.41;97992.09;4867709;29;20117;-71
2022/08/26 01:49:04;;;;;;;10.20;9.00;;;;;;;18.03;78.38;97986.38;4868735;29;20131;-72
2022/08/26 01:51:35;;;;;;;14.32;9.38;;;;;;;17.99;78.56;97985.97;4897717;29;20052;-71
2022/08/26 01:54:04;;;;;;;13.23;10.55;;;;;;;17.95;78.68;97987.41;4865269;29;20044;-71
2022/08/26 01:56:30;;;;;;;11.95;9.70;;;;;;;17.93;78.92;97977.97;4866936;29;20077;-71
2022/08/26 01:59:04;;;;;;;12.25;9.38;;;;;;;17.92;78.97;97982.50;4895092;29;20061;-73
2022/08/26 02:01:33;;;;;;;10.70;9.13;;;;;;;17.93;78.94;97986.84;4900149;29;20053;-72
2022/08/26 02:04:05;;;;;;;10.25;8.75;;;;;;;17.93;79.13;97981.47;4865560;29;20049;-72
2022/08/26 02:06:35;;;;;;;10.93;9.65;;;;;;;17.96;79.13;97990.94;4868171;29;20461;-72
2022/08/26 02:09:03;;;;;;;15.02;10.43;;;;;;;17.95;79.23;97987.41;4861409;29;20057;-71
2022/08/26 02:11:30;;;;;;;14.10;10.48;;;;;;;17.93;79.01;97991.34;4867989;29;20048;-72
2022/08/26 02:14:01;;;;;;;14.30;10.52;;;;;;;17.94;78.95;97993.00;4869311;29;20055;-71
2022/08/26 02:16:40;;;;;;;11.25;9.95;;;;;;;17.94;78.90;97993.81;4866498;29;20142;-72
2022/08/26 02:19:14;;;;;;;12.85;10.18;;;;;;;17.92;78.82;97995.06;4871627;29;20050;-71
2022/08/26 02:21:44;;;;;;;15.23;9.35;;;;;;;17.91;78.90;98004.94;4868514;29;20057;-72
2022/08/26 02:24:24;;;;;;;11.77;10.05;;;;;;;17.89;79.02;97996.31;4871064;29;20052;-72
2022/08/26 02:26:55;;;;;;;12.85;10.27;;;;;;;17.88;79.13;98000.03;4872844;29;20500;-72
2022/08/26 02:29:28;;;;;;;16.60;11.98;;;;;;;17.90;79.18;97997.13;4873893;29;20059;-72
2022/08/26 02:31:57;;;;;;;20.98;12.52;;;;;;;17.83;79.38;97991.81;4859546;29;20042;-72
2022/08/26 02:34:30;;;;;;;14.32;11.90;;;;;;;17.90;79.12;97989.91;4862547;29;20134;-71
2022/08/26 02:36:59;;;;;;;15.05;12.68;;;;;;;17.86;79.28;97991.38;4876081;29;20056;-72
2022/08/26 02:39:28;;;;;;;18.88;11.75;;;;;;;17.85;79.57;97994.25;4870731;29;20454;-71
2022/08/26 02:41:55;;;;;;;17.27;10.88;;;;;;;17.86;79.46;97996.75;4867971;29;20738;-71
2022/08/26 02:44:22;;;;;;;13.70;10.75;;;;;;;17.82;79.52;97990.16;4869664;29;20401;-71
2022/08/26 02:46:52;;;;;;;17.35;10.75;;;;;;;17.80;79.75;97992.25;4866796;29;20062;-71
2022/08/26 02:49:20;;;;;;;12.52;9.73;;;;;;;17.69;80.25;97987.50;4858966;29;20138;-72
2022/08/26 02:51:48;;;;;;;10.73;9.57;;;;;;;17.65;80.05;97988.97;4866518;29;20041;-71
2022/08/26 02:54:16;;;;;;;15.77;11.38;;;;;;;17.60;80.27;97980.75;4867677;29;20131;-71
2022/08/26 02:56:43;;;;;;;14.70;10.40;;;;;;;17.55;80.58;97979.50;4864925;29;20049;-71
2022/08/26 02:59:11;;;;;;;14.30;10.30;;;;;;;17.58;80.73;97982.81;4866828;29;20053;-72
2022/08/26 03:01:39;;;;;;;12.32;10.98;;;;;;;17.51;80.55;97980.16;4872402;29;20102;-72
2022/08/26 03:04:09;;;;;;;15.60;11.07;;;;;;;17.45;80.80;97981.78;4866961;29;20049;-72
2022/08/26 03:06:36;;;;;;;15.23;11.25;;;;;;;17.43;80.87;97981.19;4863711;29;20063;-71
2022/08/26 03:09:04;;;;;;;13.13;11.07;;;;;;;17.39;81.09;97988.00;4865218;29;20124;-71
2022/08/26 03:11:31;;;;;;;12.43;10.52;;;;;;;17.37;81.34;97982.03;4898448;29;20386;-71
2022/08/26 03:13:59;;;;;;;12.60;10.05;;;;;;;17.38;81.34;97978.34;4871070;29;20060;-72
2022/08/26 03:16:30;;;;;;;15.95;10.80;;;;;;;17.37;81.51;97982.03;4868469;29;20067;-71
2022/08/26 03:18:59;;;;;;;17.10;11.45;;;;;;;17.37;81.49;97979.34;4869519;29;20057;-71
2022/08/26 03:21:25;;;;;;;18.30;11.25;;;;;;;17.28;81.59;97976.06;4861738;29;20096;-71
2022/08/26 03:23:53;;;;;;;14.57;10.68;;;;;;;17.38;81.28;97975.66;4867933;29;20433;-72
2022/08/26 03:26:24;;;;;;;15.97;11.90;;;;;;;17.40;81.06;97970.91;4868556;29;20470;-71
2022/08/26 03:31:36;;;;;;;13.43;10.27;;;;;;;17.48;80.74;97968.03;4868289;29;20045;-72
2022/08/26 03:34:04;;;;;;;17.23;10.52;;;;;;;17.55;80.77;97973.34;4871392;29;20049;-71
2022/08/26 03:36:30;;;;;;;11.63;10.40;;;;;;;17.54;80.75;97967.19;4873481;29;20072;-71
2022/08/26 03:39:00;;;;;;;17.55;11.52;;;;;;;17.54;80.85;97974.38;4857717;29;20501;-71
2022/08/26 03:41:27;;;;;;;13.95;10.88;;;;;;;17.53;80.83;97975.41;4862158;29;20057;-72
2022/08/26 03:43:55;;;;;;;16.13;10.73;;;;;;;17.50;80.87;97976.63;4867470;29;20661;-71
2022/08/26 03:46:27;;;;;;;17.35;11.60;;;;;;;17.49;81.02;97975.00;4863766;29;20048;-71
2022/08/26 03:48:54;;;;;;;14.90;11.35;;;;;;;17.50;80.76;97971.28;4867876;29;20053;-71
2022/08/26 03:51:20;;;;;;;13.50;11.18;;;;;;;17.57;80.71;97971.28;4864517;29;20053;-71
2022/08/26 03:53:49;;;;;;;15.65;11.88;;;;;;;17.54;80.61;97977.88;4866117;29;20049;-71
2022/08/26 03:56:16;;;;;;;13.35;10.40;;;;;;;17.51;80.70;97972.13;4864839;29;20063;-72
2022/08/26 03:58:43;;;;;;;16.17;12.15;;;;;;;17.44;81.69;97971.31;4857950;29;20054;-72
2022/08/26 04:01:13;;;;;;;14.55;11.45;;;;;;;17.29;81.56;97975.03;4863465;29;20049;-72
2022/08/26 04:03:57;;;;;;;19.65;11.52;;;;;;;17.25;81.58;97979.19;4868116;29;20037;-72
2022/08/26 04:06:38;;;;;;;22.95;13.13;;;;;;;17.26;82.34;97971.97;4867819;29;20053;-72
2022/08/26 04:09:08;;;;;;;16.35;12.20;;;;;;;17.21;81.57;97977.94;4869970;29;20060;-71
2022/08/26 04:11:36;;;;;;;17.63;12.25;;;;;;;17.04;82.18;97976.72;4860410;29;20494;-72
2022/08/26 04:14:13;;;;;;;13.13;11.27;;;;;;;17.01;82.06;97975.28;4854941;29;20049;-72
2022/08/26 04:16:43;;;;;;;16.48;12.80;;;;;;;16.91;82.35;97974.88;4866799;29;20054;-72
2022/08/26 04:19:12;;;;;;;19.30;12.80;;;;;;;16.96;83.25;97977.75;4862971;29;20049;-72
2022/08/26 04:21:40;;;;;;;15.98;12.15;;;;;;;17.06;83.13;97980.00;4870160;29;20056;-72
2022/08/26 04:24:08;;;;;;;16.88;13.10;;;;;;;16.92;82.83;97984.53;4870162;29;20173;-73
2022/08/26 04:26:38;;;;;;;18.33;13.88;;;;;;;16.78;83.38;97982.91;4863216;29;20049;-71
2022/08/26 04:29:13;;;;;;;19.23;13.85;;;;;;;16.70;83.83;97980.41;4857852;29;20054;-72
2022/08/26 04:31:40;;;;;;;18.45;13.82;;;;;;;16.64;84.19;97980.19;4857772;29;20045;-72
2022/08/26 04:34:07;;;;;;;16.35;13.20;;;;;;;16.73;84.16;97974.66;4871328;29;20044;-73
2022/08/26 04:36:36;;;;;;;17.75;13.20;;;;;;;16.70;84.00;97977.72;4872259;29;20503;-71
2022/08/26 04:39:04;;;;;;;16.95;13.60;;;;;;;16.64;84.54;97977.53;4864293;29;20052;-72
2022/08/26 04:41:31;;;;;;;17.90;13.95;;;;;;;16.67;84.20;97974.44;4865829;29;20516;-72
2022/08/26 04:43:58;;;;;;;20.77;14.63;;;;;;;16.67;84.09;97977.09;4869379;29;20416;-71
2022/08/26 04:46:25;;;;;;;19.95;14.75;;;;;;;16.70;84.27;97975.06;4857272;29;20080;-72
2022/08/26 04:48:54;;;;;;;21.05;14.00;;;;;;;16.85;84.04;97973.88;4866172;29;20053;-71
2022/08/26 04:51:26;;;;;;;16.63;13.75;;;;;;;16.96;83.90;97975.09;4866759;29;20088;-71
2022/08/26 04:53:57;;;;;;;18.27;13.43;;;;;;;17.08;83.49;97973.41;4866257;29;20053;-72
2022/08/26 04:56:26;;;;;;;19.30;14.52;;;;;;;17.18;83.34;97973.00;4866618;29;20057;-71
2022/08/26 04:58:54;;;;;;;24.48;14.80;;;;;;;17.29;83.05;97971.53;4895183;29;20057;-71
2022/08/26 05:01:21;;;;;;;25.25;14.75;;;;;;;17.42;82.65;97976.88;4859579;29;20056;-71
2022/08/26 05:03:49;;;;;;;18.83;14.82;;;;;;;17.57;82.48;97979.31;4859544;29;20132;-71
2022/08/26 05:06:18;;;;;;;19.20;13.98;;;;;;;17.78;81.66;97986.25;4894282;29;20112;-72
2022/08/26 05:08:45;;;;;;;22.00;14.45;;;;;;;17.92;81.12;97982.50;4861727;29;20068;-72
2022/08/26 05:11:12;;;;;;;22.98;13.73;;;;;;;18.04;80.88;97984.53;4869909;29;20045;-71
2022/08/26 05:13:39;;;;;;;18.20;12.25;;;;;;;18.17;80.18;97979.94;4871101;29;20049;-71
2022/08/26 05:16:08;;;;;;;19.27;12.90;;;;;;;18.33;79.69;97985.81;4865980;29;20051;-71
2022/08/26 05:18:38;;;;;;;18.58;12.25;;;;;;;18.46;79.20;97983.06;4855788;29;20062;-71
2022/08/26 05:21:06;;;;;;;18.38;12.68;;;;;;;18.57;78.47;97970.81;4862246;29;20096;-71
2022/08/26 05:23:34;;;;;;;16.20;12.35;;;;;;;18.66;78.09;97974.88;4864797;29;20049;-72
2022/08/26 05:26:01;;;;;;;17.75;12.20;;;;;;;18.72;77.65;97984.75;4869587;29;20120;-72
2022/08/26 05:28:30;;;;;;;20.20;13.07;;;;;;;18.76;77.25;97983.28;4860948;29;20061;-71
2022/08/26 05:30:57;;;;;;;16.33;12.15;;;;;;;18.76;76.77;97988.63;4868670;29;20068;-71
2022/08/26 05:33:24;;;;;;;16.95;13.32;;;;;;;18.73;76.63;97986.38;4868818;29;20052;-71
2022/08/26 05:35:50;;;;;;;18.88;13.00;;;;;;;18.71;76.89;97988.44;4864408;29;20433;-72
2022/08/26 05:38:20;;;;;;;18.08;13.70;;;;;;;18.69;77.34;97987.00;4866564;29;20403;-71
2022/08/26 05:40:49;;;;;;;15.95;12.63;;;;;;;18.85;77.04;97979.31;4866898;29;20060;-72
2022/08/26 05:43:19;;;;;;;15.60;12.45;;;;;;;19.04;76.82;97987.41;4870033;29;20058;-71
2022/08/26 05:45:48;;;;;;;16.50;12.30;;;;;;;19.24;76.24;97987.22;4865969;29;20713;-71
2022/08/26 05:48:17;;;;;;;19.52;11.68;;;;;;;19.34;75.29;97989.41;4857982;29;20053;-71
2022/08/26 05:50:50;;;;;;;18.67;12.40;;;;;;;19.48;74.36;97993.56;4867197;29;20052;-73
2022/08/26 05:53:19;;;;;;;18.75;12.27;;;;;;;19.48;74.52;97999.78;4865076;29;20045;-72
2022/08/26 05:55:50;;;;;;;15.65;11.65;;;;;;;19.41;74.76;97999.03;4871910;29;20124;-72
2022/08/26 05:58:19;;;;;;;17.00;10.95;;;;;;;19.42;74.70;98002.53;4862962;29;20052;-71
2022/08/26 06:01:04;;;;;;;14.52;11.13;;;;;;;19.32;75.05;97994.97;4872299;29;20473;-72
2022/08/26 06:03:33;;;;;;;20.45;11.98;;;;;;;19.29;75.23;97998.09;4867146;29;20050;-72
2022/08/26 06:06:08;;;;;;;14.77;11.10;;;;;;;19.36;75.24;98004.22;4869110;29;20086;-72
2022/08/26 06:08:36;;;;;;;15.52;11.50;;;;;;;19.40;74.88;98008.09;4862222;29;20041;-72
2022/08/26 06:11:06;;;;;;;14.63;11.20;;;;;;;19.44;74.87;98008.50;4894224;29;20048;-71
2022/08/26 06:13:44;;;;;;;16.95;11.02;;;;;;;19.44;74.56;98009.31;4867169;29;20133;-71
2022/08/26 06:16:13;;;;;;;15.32;11.30;;;;;;;19.45;74.74;98004.75;4876943;29;20051;-71
2022/08/26 06:18:41;;;;;;;14.77;10.68;;;;;;;19.50;74.95;98010.28;4867938;29;20055;-71
2022/08/26 06:21:32;;;;;;;14.55;10.85;;;;;;;19.53;74.88;98013.31;4864299;29;20057;-72
2022/08/26 06:26:54;;;;;;;14.93;10.68;;;;;;;19.70;74.59;98024.34;4862733;29;20077;-73
2022/08/26 06:29:24;;;;;;;17.08;11.68;;;;;;;19.81;73.96;98024.66;4870733;29;20989;-72
2022/08/26 06:31:52;;;;;;;13.98;9.90;;;;;;;19.94;72.93;98019.13;4873656;29;20436;-72
2022/08/26 06:34:18;;;;;;;15.20;10.77;;;;;;;20.04;73.13;98016.75;4867973;29;20049;-72
2022/08/26 06:36:46;;;;;;;12.65;10.13;;;;;;;20.17;73.00;98019.25;4866243;29;20057;-72
2022/08/26 06:39:15;;;;;;;10.90;9.68;;;;;;;20.28;71.58;98016.84;4868867;29;20081;-72
2022/08/26 06:41:43;;;;;;;12.02;9.10;;;;;;;20.38;71.17;98019.81;4864768;29;20057;-72
2022/08/26 06:44:17;;;;;;;16.98;9.43;;;;;;;20.47;71.16;98018.44;4870632;29;20075;-72
2022/08/26 06:46:44;;;;;;;10.65;8.57;;;;;;;20.52;70.75;98021.25;4871784;29;20050;-72
2022/08/26 06:49:15;;;;;;;12.18;8.65;;;;;;;20.57;70.04;98021.44;4863248;29;20061;-72
2022/08/26 06:51:43;;;;;;;10.77;8.77;;;;;;;20.66;69.70;98029.16;4863297;29;20046;-72
2022/08/26 06:54:10;;;;;;;12.38;9.55;;;;;;;20.70;70.10;98019.63;4875381;29;20052;-72
2022/08/26 06:56:39;;;;;;;14.75;9.23;;;;;;;20.70;70.78;98023.13;4870535;29;20132;-72
2022/08/26 06:59:07;;;;;;;10.75;9.13;;;;;;;20.75;70.20;98019.75;4861417;29;20068;-72
2022/08/26 07:01:37;;;;;;;10.55;8.25;;;;;;;20.81;70.46;98013.44;4863702;29;20076;-72
2022/08/26 07:04:08;;;;;;;13.25;9.43;;;;;;;20.88;70.69;98024.91;4870675;29;20053;-72
2022/08/26 07:06:40;;;;;;;13.23;9.70;;;;;;;20.98;70.10;98018.94;4869459;29;20513;-73
2022/08/26 07:09:09;;;;;;;11.25;8.55;;;;;;;21.07;68.70;98022.97;4873742;29;20052;-72
2022/08/26 07:11:37;;;;;;;12.55;8.27;;;;;;;21.14;68.84;98018.25;4864171;29;20072;-72
2022/08/26 07:14:04;;;;;;;13.20;9.35;;;;;;;21.23;68.23;98022.25;4863611;29;20444;-72
2022/08/26 07:16:32;;;;;;;12.13;9.30;;;;;;;21.38;67.23;98026.38;4861486;29;20057;-72
2022/08/26 07:18:59;;;;;;;10.82;8.40;;;;;;;21.45;67.65;98025.22;4897743;29;20048;-72
2022/08/26 07:21:28;;;;;;;12.77;9.23;;;;;;;21.54;66.58;98024.88;4872111;29;20051;-72
2022/08/26 07:23:55;;;;;;;11.60;8.93;;;;;;;21.67;66.87;98025.47;4867848;29;20489;-72
2022/08/26 07:26:28;;;;;;;11.98;8.43;;;;;;;21.68;65.80;98024.41;4869628;29;20049;-72
2022/08/26 07:28:56;;;;;;;13.90;8.73;;;;;;;21.79;66.23;98032.69;4862866;29;20064;-72
2022/08/26 07:31:26;;;;;;;12.85;8.55;;;;;;;21.84;66.48;98038.19;4863809;29;20053;-72
2022/08/26 07:33:55;;;;;;;12.70;8.43;;;;;;;21.99;65.25;98041.22;4888580;29;20057;-72
2022/08/26 07:36:23;;;;;;;11.02;8.57;;;;;;;22.10;64.90;98037.66;4867585;29;20068;-72
2022/08/26 07:38:50;;;;;;;16.00;8.77;;;;;;;22.26;64.26;98036.13;4862137;29;20416;-72
2022/08/26 07:41:19;;;;;;;10.95;8.00;;;;;;;22.61;64.00;98031.66;4869306;29;20068;-72
2022/08/26 07:43:46;;;;;;;12.82;8.38;;;;;;;22.78;63.30;98033.34;4869146;29;20037;-72
2022/08/26 07:46:17;;;;;;;10.93;7.95;;;;;;;22.84;63.83;98036.13;4870931;29;20412;-72
2022/08/26 07:48:52;;;;;;;12.40;7.78;;;;;;;22.94;63.59;98025.50;4862109;29;20140;-72
2022/08/26 07:51:20;;;;;;;9.27;7.95;;;;;;;23.00;63.90;98030.75;4859657;29;20055;-72
2022/08/26 07:53:47;;;;;;;9.48;7.45;;;;;;;23.11;64.02;98030.94;4863351;29;20074;-74
2022/08/26 07:56:19;;;;;;;12.70;8.20;;;;;;;23.22;60.84;98033.56;4865475;29;20049;-72
2022/08/26 07:58:46;;;;;;;9.52;8.07;;;;;;;23.36;61.00;98030.53;4871688;29;20491;-73
2022/08/26 08:01:17;;;;;;;13.88;7.97;;;;;;;23.50;59.49;98028.31;4860557;29;20073;-72
2022/08/26 08:03:44;;;;;;;9.18;7.18;;;;;;;23.50;59.79;98029.13;4892673;29;20045;-72
2022/08/26 08:06:11;;;;;;;15.43;8.07;;;;;;;23.51;58.93;98030.72;4858747;29;20061;-72
2022/08/26 08:08:40;;;;;;;10.88;6.95;;;;;;;23.49;60.04;98027.50;4869220;29;20063;-73
2022/08/26 08:11:07;;;;;;;11.60;7.25;;;;;;;23.27;60.26;98035.50;4870275;29;20048;-73
2022/08/26 08:13:36;;;;;;;9.60;7.53;;;;;;;23.31;60.53;98030.44;4865910;29;20128;-72
2022/08/26 08:16:03;;;;;;;10.25;7.35;;;;;;;23.41;59.97;98036.00;4861235;29;20053;-72
2022/08/26 08:18:30;;;;;;;10.27;6.88;;;;;;;23.49;60.85;98027.50;4898117;29;20060;-72
2022/08/26 08:20:59;;;;;;;9.80;7.18;;;;;;;23.60;60.60;98026.56;4861023;29;20132;-72
2022/08/26 08:23:46;;;;;;;10.48;7.00;;;;;;;23.67;59.10;98026.38;4859129;29;20049;-74
2022/08/26 08:26:13;;;;;;;7.50;6.03;;;;;;;23.67;60.48;98024.50;4870489;29;20132;-72
2022/08/26 08:28:39;;;;;;;7.72;6.18;;;;;;;23.59;59.13;98022.25;4867378;29;20592;-72
2022/08/26 08:31:27;;;;;;;9.43;6.40;;;;;;;23.62;60.10;98027.13;4867745;29;20059;-72
2022/08/26 08:34:14;;;;;;;7.68;5.97;;;;;;;23.68;60.08;98025.31;4871915;29;20052;-72
2022/08/26 08:36:40;;;;;;;7.82;5.65;;;;;;;24.05;59.43;98020.16;4871002;29;20053;-73
2022/08/26 08:39:08;;;;;;;13.65;5.95;;;;;;;24.50;57.52;98018.28;4866871;29;20535;-72
2022/08/26 08:42:08;;;;;;;6.35;5.70;;;;;;;24.71;54.48;98019.28;4862853;29;20056;-72
2022/08/26 08:44:37;;;;;;;12.07;6.20;;;;;;;25.03;53.86;98021.19;4894192;29;20126;-73
2022/08/26 08:47:14;;;;;;;6.28;5.68;;;;;;;25.24;53.67;98008.66;4871844;29;20061;-73
2022/08/26 08:49:42;;;;;;;8.15;5.10;;;;;;;25.23;53.63;98012.47;4895823;29;20080;-73
2022/08/26 08:52:17;;;;;;;6.32;5.75;;;;;;;25.51;52.91;98020.22;4897643;29;20045;-73
2022/08/26 08:54:45;;;;;;;8.50;5.72;;;;;;;25.60;52.57;98009.72;4863394;29;20489;-74
2022/08/26 08:57:31;;;;;;;7.80;5.72;;;;;;;25.70;52.26;98008.94;4863306;29;20051;-73
2022/08/26 09:00:10;;;;;;;8.05;5.47;;;;;;;25.81;51.56;98008.75;4870167;29;20593;-72
2022/08/26 09:02:48;;;;;;;10.93;5.85;;;;;;;25.91;51.22;98001.78;4864738;29;20093;-73
2022/08/26 09:05:30;;;;;;;7.00;5.53;;;;;;;25.96;52.41;98009.94;4871075;29;20046;-73
2022/08/26 09:08:08;;;;;;;8.85;5.28;;;;;;;26.21;50.11;97998.38;4869648;29;20139;-72
2022/08/26 09:10:43;;;;;;;8.88;5.50;;;;;;;26.24;50.71;97993.22;4866851;29;20080;-73
2022/08/26 09:13:13;;;;;;;9.85;6.18;;;;;;;26.53;49.38;97994.69;4863341;29;20052;-74
2022/08/26 09:16:00;;;;;;;8.95;5.93;;;;;;;26.50;49.72;97990.59;4863956;29;20064;-73
2022/08/26 09:18:54;;;;;;;8.60;5.43;;;;;;;26.63;50.19;97986.56;4871517;29;20049;-73
2022/08/26 09:21:22;;;;;;;8.15;5.88;;;;;;;26.47;49.39;97991.13;4870532;29;20046;-73
2022/08/26 09:23:54;;;;;;;6.88;5.05;;;;;;;26.61;49.00;97989.53;4867460;29;20421;-73
2022/08/26 09:26:29;;;;;;;10.70;6.10;;;;;;;26.89;48.95;97990.94;4873266;29;20052;-71
2022/08/26 09:29:01;;;;;;;11.32;6.38;;;;;;;27.03;49.63;97982.25;4872164;29;20056;-71
2022/08/26 09:31:31;;;;;;;6.03;5.40;;;;;;;27.21;50.58;97979.00;4864044;29;20064;-71
2022/08/26 09:34:16;;;;;;;7.60;6.00;;;;;;;27.28;49.96;97976.81;4869000;29;20075;-72
2022/08/26 09:36:50;;;;;;;7.97;5.75;;;;;;;27.54;49.38;97974.88;4874952;29;20524;-73
2022/08/26 09:39:22;;;;;;;8.23;6.00;;;;;;;27.21;49.63;97967.34;4873012;29;20050;-74
2022/08/26 09:42:24;;;;;;;9.85;6.75;;;;;;;27.01;50.48;97960.78;4870840;29;20064;-73
2022/08/26 09:44:58;;;;;;;7.43;5.95;;;;;;;27.18;50.87;97957.81;4862513;29;20394;-73
2022/08/26 09:47:29;;;;;;;12.95;6.28;;;;;;;27.37;49.60;97955.34;4873114;29;20068;-73
2022/08/26 09:50:24;;;;;;;12.13;6.10;;;;;;;27.32;50.48;97949.91;4869144;29;20049;-74
2022/08/26 09:53:08;;;;;;;8.98;5.65;;;;;;;27.35;49.60;97938.50;4877774;29;20501;-73
2022/08/26 09:55:41;;;;;;;7.95;6.15;;;;;;;27.33;50.01;97932.53;4863957;29;20084;-73
2022/08/26 09:58:13;;;;;;;10.10;6.15;;;;;;;27.51;47.39;97929.22;4871730;29;20060;-74
2022/08/26 10:00:42;;;;;;;11.45;5.75;;;;;;;27.61;48.21;97925.66;4864490;29;20068;-74
2022/08/26 10:03:10;;;;;;;14.82;6.72;;;;;;;27.52;48.20;97921.91;4891675;29;20045;-74
2022/08/26 10:05:55;;;;;;;13.40;5.90;;;;;;;27.75;48.64;97934.84;4868603;29;20113;-75
2022/08/26 10:08:29;;;;;;;13.80;6.85;;;;;;;27.94;46.81;97929.63;4867822;29;20734;-75
2022/08/26 10:11:00;;;;;;;8.77;6.05;;;;;;;27.97;46.85;97925.53;4868670;29;20049;-74
2022/08/26 10:13:30;;;;;;;9.00;6.20;;;;;;;28.12;45.67;97919.19;4899894;29;20045;-74
2022/08/26 10:16:16;;;;;;;16.85;7.10;;;;;;;28.18;44.03;97912.66;4868652;29;20049;-73
2022/08/26 10:19:20;;;;;;;8.68;6.25;;;;;;;28.51;45.55;97913.78;4860323;29;20061;-74
2022/08/26 10:22:24;;;;;;;10.88;6.70;;;;;;;28.53;46.19;97911.59;4857002;29;20053;-74
2022/08/26 10:24:57;;;;;;;9.02;6.07;;;;;;;28.33;45.69;97909.84;4860708;29;20140;-74
2022/08/26 10:27:36;;;;;;;12.20;6.70;;;;;;;28.45;45.32;97917.66;4873235;29;20053;-74
2022/08/26 10:30:11;;;;;;;9.80;6.10;;;;;;;28.55;45.41;97916.78;4868381;29;20106;-74
2022/08/26 10:32:45;;;;;;;11.63;6.20;;;;;;;28.70;44.12;97911.22;4865335;29;20193;-75
2022/08/26 10:35:14;;;;;;;11.00;6.32;;;;;;;28.74;43.02;97912.25;4872565;29;20055;-75
2022/08/26 10:37:52;;;;;;;13.90;5.95;;;;;;;29.02;42.11;97920.75;4865762;29;20067;-75
2022/08/26 10:40:24;;;;;;;12.52;6.57;;;;;;;28.89;43.92;97916.75;4866339;29;20049;-75
2022/08/26 10:43:13;;;;;;;12.32;6.40;;;;;;;29.05;41.90;97920.19;4855693;29;20096;-75
2022/08/26 10:45:48;;;;;;;10.70;6.90;;;;;;;29.19;41.95;97915.69;4865681;29;20061;-74
2022/08/26 10:48:24;;;;;;;12.65;6.07;;;;;;;28.65;40.85;97916.69;4867800;29;20113;-74
2022/08/26 10:51:02;;;;;;;12.32;5.03;;;;;;;28.10;41.79;97916.78;4868653;29;20056;-75
2022/08/26 10:53:29;;;;;;;6.88;4.22;;;;;;;27.52;41.55;97908.31;4889384;29;20227;-74
2022/08/26 10:56:09;;;;;;;11.85;4.65;;;;;;;27.90;41.17;97906.81;4862808;29;20053;-73
2022/08/26 10:59:02;;;;;;;11.10;4.85;;;;;;;28.30;40.54;97899.50;4865515;29;20064;-73
2022/08/26 11:01:47;;;;;;;12.18;4.78;;;;;;;28.56;38.62;97899.34;4867101;29;20441;-74
2022/08/26 11:04:16;;;;;;;11.68;4.18;;;;;;;28.76;39.10;97891.00;4863217;29;20119;-74
2022/08/26 11:06:44;;;;;;;8.98;4.15;;;;;;;28.88;38.29;97887.91;4866917;29;20152;-74
2022/08/26 11:09:41;;;;;;;10.95;4.70;;;;;;;29.16;37.59;97886.28;4868062;29;21441;-74
2022/08/26 11:12:08;;;;;;;8.05;4.40;;;;;;;29.22;38.58;97882.41;4866134;29;20098;-74
2022/08/26 11:14:36;;;;;;;8.25;5.05;;;;;;;29.17;38.46;97879.72;4865830;29;20053;-74
2022/08/26 11:17:43;;;;;;;6.97;4.43;;;;;;;29.16;38.93;97878.13;4866223;29;20053;-74
2022/08/26 11:20:22;;;;;;;11.98;5.47;;;;;;;29.19;39.33;97882.19;4867601;29;20057;-73
2022/08/26 11:22:51;;;;;;;8.60;5.75;;;;;;;29.09;40.77;97883.09;4870014;29;20129;-77
2022/08/26 11:25:23;;;;;;;9.10;4.97;;;;;;;29.43;39.33;97876.72;4891756;29;20045;-74
2022/08/26 11:27:58;;;;;;;9.57;5.35;;;;;;;29.09;39.77;97875.72;4859381;29;20130;-74
2022/08/26 11:30:34;;;;;;;9.85;6.07;;;;;;;29.45;40.75;97872.63;4871771;29;20053;-74
2022/08/26 11:33:01;;;;;;;12.80;6.43;;;;;;;29.50;40.58;97866.28;4866781;29;20049;-74
2022/08/26 11:35:34;;;;;;;18.42;7.63;;;;;;;29.69;40.19;97860.91;4868620;29;20053;-73
2022/08/26 11:38:19;;;;;;;10.43;5.75;;;;;;;30.08;39.96;97863.34;4871188;29;20052;-74
2022/08/26 11:40:55;;;;;;;12.50;6.72;;;;;;;29.87;40.90;97859.31;4894336;29;20128;-74
2022/08/26 11:43:24;;;;;;;9.82;6.70;;;;;;;29.75;41.62;97862.44;4859930;29;20045;-74
2022/08/26 11:46:05;;;;;;;13.95;7.25;;;;;;;29.10;41.67;97852.84;4866047;29;20425;-74
2022/08/26 11:48:39;;;;;;;10.95;6.35;;;;;;;28.75;43.58;97845.81;4874768;29;20536;-74
2022/08/26 11:51:12;;;;;;;15.40;6.63;;;;;;;28.33;44.83;97852.69;4863736;29;20465;-75